createdAt,value
2023-02-12T00:01:23.812Z,9.90
2023-02-12T00:03:51.255Z,9.30
2023-02-12T00:06:18.255Z,9.33
2023-02-12T00:08:45.289Z,10.93
2023-02-12T00:11:16.428Z,10.63
2023-02-12T00:13:43.695Z,10.17
2023-02-12T00:16:19.195Z,13.30
2023-02-12T00:18:46.780Z,9.30
2023-02-12T00:21:14.760Z,10.17
2023-02-12T00:23:41.888Z,9.40
2023-02-12T00:26:15.053Z,13.20
2023-02-12T00:28:43.193Z,15.63
2023-02-12T00:31:17.781Z,13.20
2023-02-12T00:33:44.981Z,15.60
2023-02-12T00:36:18.798Z,13.70
2023-02-12T00:38:46.777Z,14.80
2023-02-12T00:41:14.324Z,13.63
2023-02-12T00:43:41.926Z,10.87
2023-02-12T00:46:09.035Z,12.07
2023-02-12T00:48:37.006Z,11.97
2023-02-12T00:51:04.699Z,12.67
2023-02-12T00:53:32.811Z,10.50
2023-02-12T00:56:00.373Z,13.13
2023-02-12T00:58:27.565Z,13.30
2023-02-12T01:00:55.070Z,11.73
2023-02-12T01:03:22.249Z,14.00
2023-02-12T01:05:49.363Z,12.43
2023-02-12T01:08:17.520Z,13.23
2023-02-12T01:10:45.160Z,15.77
2023-02-12T01:13:15.830Z,14.40
2023-02-12T01:15:42.964Z,12.57
2023-02-12T01:18:09.961Z,14.43
2023-02-12T01:20:37.131Z,11.63
2023-02-12T01:23:06.868Z,10.87
2023-02-12T01:25:33.889Z,12.30
2023-02-12T01:28:00.897Z,13.13
2023-02-12T01:30:27.846Z,11.03
2023-02-12T01:32:55.558Z,10.93
2023-02-12T01:35:22.539Z,14.27
2023-02-12T01:37:49.500Z,14.27
2023-02-12T01:40:18.830Z,12.27
2023-02-12T01:42:45.769Z,9.93
2023-02-12T01:45:12.727Z,11.03
2023-02-12T01:47:45.024Z,12.20
2023-02-12T01:50:18.669Z,12.57
2023-02-12T01:52:51.765Z,12.90
2023-02-12T01:55:19.855Z,11.97
2023-02-12T01:57:48.410Z,10.80
2023-02-12T02:00:25.232Z,9.97
2023-02-12T02:02:58.266Z,9.90
2023-02-12T02:05:57.086Z,12.77
2023-02-12T02:08:24.221Z,17.00
2023-02-12T02:10:51.111Z,14.83
2023-02-12T02:13:37.428Z,12.60
2023-02-12T02:16:26.544Z,13.70
2023-02-12T02:19:03.435Z,12.23
2023-02-12T02:21:50.155Z,10.73
2023-02-12T02:24:31.863Z,14.10
2023-02-12T02:27:23.685Z,12.30
2023-02-12T02:30:34.397Z,11.23
2023-02-12T02:33:34.103Z,12.13
2023-02-12T02:37:00.970Z,11.23
2023-02-12T02:39:58.613Z,11.17
2023-02-12T02:42:37.410Z,10.80
2023-02-12T02:45:27.705Z,13.80
2023-02-12T02:47:59.045Z,12.33
2023-02-12T02:50:29.614Z,11.37
2023-02-12T02:53:05.091Z,13.23
2023-02-12T02:55:41.123Z,12.10
2023-02-12T02:58:15.001Z,12.43
2023-02-12T03:01:07.974Z,11.53
2023-02-12T03:04:01.861Z,15.77
2023-02-12T03:06:58.629Z,12.40
2023-02-12T03:09:31.658Z,11.30
2023-02-12T03:12:33.609Z,13.10
2023-02-12T03:15:12.372Z,15.07
2023-02-12T03:17:44.442Z,10.83
2023-02-12T03:20:44.579Z,14.80
2023-02-12T03:23:24.536Z,13.20
2023-02-12T03:26:08.811Z,12.20
2023-02-12T03:28:38.545Z,13.57
2023-02-12T03:31:23.619Z,10.80
2023-02-12T03:34:19.506Z,15.40
2023-02-12T03:36:59.412Z,12.50
2023-02-12T03:39:51.363Z,12.97
2023-02-12T03:42:32.124Z,11.60
2023-02-12T03:45:16.806Z,11.23
2023-02-12T03:48:23.165Z,12.00
2023-02-12T03:50:58.990Z,12.73
2023-02-12T03:53:29.424Z,11.43
2023-02-12T03:56:06.487Z,11.27
2023-02-12T03:58:35.655Z,10.87
2023-02-12T04:01:03.577Z,14.20
2023-02-12T04:03:33.124Z,12.00
2023-02-12T04:05:59.991Z,10.57
2023-02-12T04:08:28.395Z,12.57
2023-02-12T04:11:08.394Z,12.80
2023-02-12T04:14:08.894Z,13.03
2023-02-12T04:16:46.113Z,13.60
2023-02-12T04:19:17.397Z,12.27
2023-02-12T04:22:13.761Z,11.30
2023-02-12T04:25:12.068Z,11.13
2023-02-12T04:28:17.261Z,9.20
2023-02-12T04:31:04.164Z,12.63
2023-02-12T04:34:10.245Z,12.60
2023-02-12T04:37:23.282Z,12.20
2023-02-12T04:39:51.710Z,10.30
2023-02-12T04:42:18.747Z,11.83
2023-02-12T04:44:45.989Z,13.60
2023-02-12T04:47:15.501Z,12.43
2023-02-12T04:49:42.876Z,13.20
2023-02-12T04:52:10.118Z,10.93
2023-02-12T04:54:37.494Z,11.07
2023-02-12T04:57:04.840Z,12.47
2023-02-12T04:59:31.814Z,10.57
2023-02-12T05:01:58.800Z,11.60
2023-02-12T05:04:25.679Z,12.73
2023-02-12T05:06:52.690Z,11.80
2023-02-12T05:09:21.028Z,13.13
2023-02-12T05:11:48.376Z,11.83
2023-02-12T05:14:15.700Z,11.33
2023-02-12T05:16:42.781Z,11.17
2023-02-12T05:19:09.924Z,12.90
2023-02-12T05:21:38.554Z,11.87
2023-02-12T05:24:05.929Z,9.50
2023-02-12T05:26:33.022Z,10.70
2023-02-12T05:28:59.898Z,12.20
2023-02-12T05:31:27.650Z,12.87
2023-02-12T05:33:54.650Z,9.43
2023-02-12T05:36:24.520Z,12.00
2023-02-12T05:38:53.318Z,13.23
2023-02-12T05:41:23.042Z,10.50
2023-02-12T05:43:51.077Z,10.70
2023-02-12T05:46:20.239Z,13.23
2023-02-12T05:48:47.562Z,13.07
2023-02-12T05:51:18.047Z,10.40
2023-02-12T05:53:45.036Z,11.73
2023-02-12T05:56:16.723Z,10.60
2023-02-12T05:58:47.283Z,10.10
2023-02-12T06:01:39.796Z,10.27
2023-02-12T06:04:13.498Z,13.00
2023-02-12T06:06:42.240Z,10.60
2023-02-12T06:09:11.404Z,11.13
2023-02-12T06:11:39.094Z,10.10
2023-02-12T06:14:08.923Z,9.83
2023-02-12T06:16:36.315Z,12.30
2023-02-12T06:19:05.357Z,10.73
2023-02-12T06:21:33.418Z,12.83
2023-02-12T06:24:00.473Z,12.33
2023-02-12T06:26:27.754Z,11.23
2023-02-12T06:28:54.941Z,14.90
2023-02-12T06:31:30.740Z,10.60
2023-02-12T06:34:02.383Z,16.90
2023-02-12T06:36:30.204Z,13.57
2023-02-12T06:38:57.160Z,13.20
2023-02-12T06:41:24.409Z,11.37
2023-02-12T06:43:51.296Z,11.33
2023-02-12T06:46:19.887Z,11.40
2023-02-12T06:48:46.837Z,10.40
2023-02-12T06:51:18.129Z,10.30
2023-02-12T06:53:45.438Z,10.50
2023-02-12T06:56:13.733Z,9.27
2023-02-12T06:58:45.857Z,8.30
2023-02-12T07:01:28.109Z,11.37
2023-02-12T07:03:59.141Z,9.60
2023-02-12T07:06:27.749Z,9.90
2023-02-12T07:08:58.440Z,10.10
2023-02-12T07:11:31.796Z,8.50
2023-02-12T07:13:59.123Z,9.70
2023-02-12T07:16:26.929Z,12.60
2023-02-12T07:18:54.213Z,9.43
2023-02-12T07:21:21.710Z,9.77
2023-02-12T07:23:51.532Z,12.03
2023-02-12T07:26:20.969Z,8.90
2023-02-12T07:28:48.975Z,11.00
2023-02-12T07:31:23.300Z,9.30
2023-02-12T07:33:55.242Z,8.50
2023-02-12T07:36:22.590Z,9.83
2023-02-12T07:38:50.146Z,9.30
2023-02-12T07:41:22.588Z,9.70
2023-02-12T07:43:54.745Z,14.60
2023-02-12T07:46:31.948Z,10.13
2023-02-12T07:49:02.578Z,10.70
2023-02-12T07:51:29.586Z,23.27
2023-02-12T07:53:56.992Z,11.47
2023-02-12T07:56:32.542Z,12.90
2023-02-12T07:59:05.866Z,12.97
2023-02-12T08:01:39.402Z,10.20
2023-02-12T08:04:13.914Z,10.30
2023-02-12T08:06:47.676Z,10.90
2023-02-12T08:09:19.394Z,9.47
2023-02-12T08:11:46.745Z,11.30
2023-02-12T08:14:18.208Z,10.37
2023-02-12T08:16:47.558Z,11.97
2023-02-12T08:19:22.567Z,11.20
2023-02-12T08:21:55.857Z,10.70
2023-02-12T08:24:24.526Z,10.40
2023-02-12T08:26:51.834Z,10.83
2023-02-12T08:29:25.981Z,9.63
2023-02-12T08:31:59.728Z,9.03
2023-02-12T08:34:35.259Z,5.43
2023-02-12T08:37:05.227Z,26.00
2023-02-12T08:39:32.487Z,22.03
2023-02-12T08:42:01.359Z,7.03
2023-02-12T08:44:29.224Z,3.27
2023-02-12T08:46:56.410Z,8.10
2023-02-12T08:49:27.222Z,19.03
2023-02-12T08:51:57.199Z,13.10
2023-02-12T08:54:27.184Z,6.07
2023-02-12T08:56:59.506Z,4.77
2023-02-12T08:59:26.713Z,4.67
2023-02-12T09:01:53.896Z,3.67
2023-02-12T09:04:26.669Z,3.63
2023-02-12T09:06:54.049Z,2.47
2023-02-12T09:09:21.958Z,2.80
2023-02-12T09:11:49.580Z,6.23
2023-02-12T09:14:18.732Z,3.83
2023-02-12T09:16:46.136Z,4.27
2023-02-12T09:19:15.266Z,11.90
2023-02-12T09:21:42.656Z,8.83
2023-02-12T09:24:10.255Z,6.97
2023-02-12T09:26:37.772Z,3.50
2023-02-12T09:29:05.524Z,5.63
2023-02-12T09:31:33.491Z,3.70
2023-02-12T09:34:06.537Z,4.33
2023-02-12T09:36:34.300Z,3.63
2023-02-12T09:39:01.777Z,3.00
2023-02-12T09:42:21.271Z,3.73
2023-02-12T09:45:16.837Z,3.63
2023-02-12T09:48:00.014Z,3.10
2023-02-12T09:50:53.858Z,18.93
2023-02-12T09:53:28.180Z,3.00
2023-02-12T09:55:55.681Z,3.77
2023-02-12T09:58:49.791Z,5.30
2023-02-12T10:01:20.478Z,2.80
2023-02-12T10:03:50.925Z,6.30
2023-02-12T10:06:22.206Z,6.10
2023-02-12T10:08:58.895Z,3.90
2023-02-12T10:11:39.892Z,4.77
2023-02-12T10:14:27.872Z,3.33
2023-02-12T10:17:33.966Z,3.33
2023-02-12T10:20:44.368Z,3.77
2023-02-12T10:23:37.559Z,4.63
2023-02-12T10:26:22.082Z,3.23
2023-02-12T10:28:49.963Z,3.77
2023-02-12T10:31:25.216Z,3.20
2023-02-12T10:33:54.387Z,7.87
2023-02-12T10:36:44.209Z,3.03
2023-02-12T10:39:12.789Z,3.03
2023-02-12T10:41:49.174Z,4.20
2023-02-12T10:44:16.247Z,3.47
2023-02-12T10:46:43.284Z,2.83
2023-02-12T10:49:15.583Z,3.07
2023-02-12T10:52:09.427Z,2.30
2023-02-12T10:54:43.118Z,3.53
2023-02-12T10:57:33.108Z,4.57
2023-02-12T11:00:34.824Z,3.23
2023-02-12T11:03:26.683Z,8.00
2023-02-12T11:05:54.526Z,5.80
2023-02-12T11:08:36.576Z,4.60
2023-02-12T11:11:14.121Z,8.73
2023-02-12T11:13:48.916Z,3.20
2023-02-12T11:16:28.608Z,3.77
2023-02-12T11:19:05.578Z,3.50
2023-02-12T11:21:34.475Z,3.13
2023-02-12T11:24:40.284Z,2.47
2023-02-12T11:27:15.928Z,3.03
2023-02-12T11:29:44.600Z,3.70
2023-02-12T11:32:20.622Z,2.63
2023-02-12T11:35:35.213Z,3.37
2023-02-12T11:38:26.459Z,2.90
2023-02-12T11:41:06.961Z,3.23
2023-02-12T11:43:37.320Z,2.77
2023-02-12T11:46:05.679Z,3.47
2023-02-12T11:48:39.640Z,2.80
2023-02-12T11:51:10.326Z,3.93
2023-02-12T11:53:43.307Z,2.83
2023-02-12T11:56:14.456Z,3.03
2023-02-12T11:58:41.644Z,4.03
2023-02-12T12:01:15.918Z,3.23
2023-02-12T12:04:11.971Z,3.57
2023-02-12T12:06:50.077Z,3.47
2023-02-12T12:09:39.939Z,4.80
2023-02-12T12:12:35.695Z,3.03
2023-02-12T12:15:34.539Z,2.90
2023-02-12T12:18:54.785Z,2.70
2023-02-12T12:21:59.056Z,2.43
2023-02-12T12:24:58.205Z,4.27
2023-02-12T12:27:55.054Z,4.80
2023-02-12T12:30:46.332Z,3.40
2023-02-12T12:33:52.191Z,3.50
2023-02-12T12:36:33.964Z,3.97
2023-02-12T12:39:36.429Z,3.20
2023-02-12T12:42:31.051Z,3.00
2023-02-12T12:45:25.646Z,4.17
2023-02-12T12:48:14.215Z,5.43
2023-02-12T12:51:24.275Z,4.87
2023-02-12T12:54:34.813Z,4.07
2023-02-12T12:57:35.670Z,4.07
2023-02-12T13:00:19.629Z,3.17
2023-02-12T13:03:10.933Z,4.30
2023-02-12T13:06:37.168Z,4.30
2023-02-12T13:09:41.096Z,4.13
2023-02-12T13:12:36.799Z,4.73
2023-02-12T13:15:14.246Z,3.50
2023-02-12T13:17:51.981Z,5.10
2023-02-12T13:20:40.619Z,3.80
2023-02-12T13:23:33.020Z,3.43
2023-02-12T13:27:02.927Z,5.23
2023-02-12T13:29:40.600Z,3.20
2023-02-12T13:32:27.498Z,6.17
2023-02-12T13:34:56.370Z,4.33
2023-02-12T13:37:40.133Z,3.63
2023-02-12T13:40:15.878Z,3.83
2023-02-12T13:43:16.582Z,4.50
2023-02-12T13:46:12.501Z,4.23
2023-02-12T13:49:06.426Z,3.73
2023-02-12T13:51:45.665Z,5.37
2023-02-12T13:54:27.481Z,3.73
2023-02-12T13:56:59.227Z,3.73
2023-02-12T13:59:32.396Z,3.40
2023-02-12T14:02:31.004Z,4.50
2023-02-12T14:05:21.859Z,4.20
2023-02-12T14:07:59.641Z,4.10
2023-02-12T14:10:41.960Z,5.47
2023-02-12T14:13:21.744Z,5.03
2023-02-12T14:15:55.700Z,5.07
2023-02-12T14:18:35.142Z,5.03
2023-02-12T14:21:28.327Z,4.80
2023-02-12T14:24:38.948Z,5.30
2023-02-12T14:27:21.597Z,5.10
2023-02-12T14:30:31.140Z,5.03
2023-02-12T14:33:00.428Z,5.13
2023-02-12T14:35:27.451Z,5.33
2023-02-12T14:38:32.172Z,3.77
2023-02-12T14:41:34.723Z,4.00
2023-02-12T14:44:21.579Z,5.77
2023-02-12T14:46:56.162Z,4.23
2023-02-12T14:49:39.242Z,6.83
2023-02-12T14:52:18.138Z,4.47
2023-02-12T14:55:03.886Z,5.00
2023-02-12T14:57:40.162Z,4.53
2023-02-12T15:00:32.905Z,5.87
2023-02-12T15:03:19.817Z,6.33
2023-02-12T15:06:04.864Z,6.40
2023-02-12T15:08:49.042Z,28.17
2023-02-12T15:11:39.384Z,8.43
2023-02-12T15:14:13.527Z,10.60
2023-02-12T15:17:08.452Z,10.20
2023-02-12T15:20:19.255Z,8.67
2023-02-12T15:22:46.277Z,6.07
2023-02-12T15:25:20.543Z,6.07
2023-02-12T15:27:50.401Z,4.83
2023-02-12T15:30:26.359Z,6.50
2023-02-12T15:33:01.332Z,6.20
2023-02-12T15:35:38.337Z,5.90
2023-02-12T15:38:07.941Z,4.43
2023-02-12T15:40:35.297Z,6.40
2023-02-12T15:43:07.598Z,5.47
2023-02-12T15:45:37.215Z,7.07
2023-02-12T15:48:12.358Z,4.20
2023-02-12T15:50:56.618Z,4.80
2023-02-12T15:53:26.367Z,5.13
2023-02-12T15:55:55.126Z,4.80
2023-02-12T15:58:29.559Z,5.57
2023-02-12T16:01:03.803Z,15.07
2023-02-12T16:03:40.770Z,9.93
2023-02-12T16:06:11.484Z,4.87
2023-02-12T16:08:41.074Z,4.57
2023-02-12T16:11:15.188Z,6.27
2023-02-12T16:13:48.274Z,5.83
2023-02-12T16:16:15.104Z,4.93
2023-02-12T16:18:43.469Z,11.30
2023-02-12T16:21:19.364Z,18.77
2023-02-12T16:23:48.876Z,12.37
2023-02-12T16:26:25.066Z,4.20
2023-02-12T16:28:57.360Z,4.60
2023-02-12T16:31:27.469Z,4.70
2023-02-12T16:33:58.536Z,4.50
2023-02-12T16:36:25.316Z,6.20
2023-02-12T16:39:08.442Z,7.03
2023-02-12T16:41:53.701Z,4.53
2023-02-12T16:44:25.933Z,5.70
2023-02-12T16:46:59.799Z,5.27
2023-02-12T16:49:27.231Z,5.43
2023-02-12T16:52:27.217Z,7.70
2023-02-12T16:54:54.441Z,14.00
2023-02-12T16:57:22.386Z,7.60
2023-02-12T16:59:49.266Z,4.80
2023-02-12T17:02:16.647Z,4.30
2023-02-12T17:04:43.682Z,4.30
2023-02-12T17:07:28.198Z,5.40
2023-02-12T17:09:55.163Z,4.57
2023-02-12T17:12:22.253Z,5.43
2023-02-12T17:14:49.784Z,5.70
2023-02-12T17:17:16.939Z,7.47
2023-02-12T17:19:43.974Z,8.93
2023-02-12T17:22:29.038Z,24.67
2023-02-12T17:24:56.017Z,6.80
2023-02-12T17:27:23.045Z,7.67
2023-02-12T17:29:50.155Z,6.73
2023-02-12T17:32:17.191Z,5.20
2023-02-12T17:34:48.759Z,4.27
2023-02-12T17:37:17.577Z,4.50
2023-02-12T17:39:44.499Z,4.90
2023-02-12T17:42:12.163Z,4.60
2023-02-12T17:44:40.074Z,4.20
2023-02-12T17:47:07.009Z,5.33
2023-02-12T17:49:35.459Z,6.27
2023-02-12T17:52:04.691Z,5.10
2023-02-12T17:54:32.688Z,6.27
2023-02-12T17:56:59.575Z,7.60
2023-02-12T17:59:26.528Z,5.43
2023-02-12T18:01:53.446Z,5.80
2023-02-12T18:04:20.410Z,6.00
2023-02-12T18:06:47.679Z,6.43
2023-02-12T18:09:14.745Z,7.23
2023-02-12T18:11:42.380Z,6.13
2023-02-12T18:14:11.854Z,7.83
2023-02-12T18:16:38.941Z,6.53
2023-02-12T18:19:06.228Z,9.27
2023-02-12T18:21:34.971Z,8.47
2023-02-12T18:24:02.716Z,8.43
2023-02-12T18:26:29.632Z,14.60
2023-02-12T18:29:00.632Z,30.23
2023-02-12T18:31:28.441Z,12.50
2023-02-12T18:33:55.410Z,9.57
2023-02-12T18:36:23.147Z,7.87
2023-02-12T18:38:51.917Z,10.97
2023-02-12T18:41:31.953Z,7.53
2023-02-12T18:43:59.868Z,7.50
2023-02-12T18:46:29.794Z,13.10
2023-02-12T18:48:57.633Z,13.90
2023-02-12T18:51:30.896Z,17.97
2023-02-12T18:54:01.864Z,14.47
2023-02-12T18:56:31.316Z,12.70
2023-02-12T18:59:00.308Z,16.97
2023-02-12T19:01:28.720Z,14.10
2023-02-12T19:04:00.091Z,14.37
2023-02-12T19:06:32.674Z,11.70
2023-02-12T19:09:03.232Z,15.20
2023-02-12T19:11:31.096Z,19.83
2023-02-12T19:13:58.308Z,30.03
2023-02-12T19:16:26.058Z,18.87
2023-02-12T19:18:58.152Z,16.23
2023-02-12T19:21:28.270Z,18.40
2023-02-12T19:23:58.394Z,13.97
2023-02-12T19:26:28.941Z,11.93
2023-02-12T19:28:57.005Z,11.53
2023-02-12T19:31:26.034Z,15.13
2023-02-12T19:34:00.025Z,14.97
2023-02-12T19:36:29.691Z,16.73
2023-02-12T19:38:56.735Z,15.70
2023-02-12T19:41:26.605Z,15.77
2023-02-12T19:44:02.624Z,17.90
2023-02-12T19:46:31.261Z,14.70
2023-02-12T19:49:02.154Z,18.73
2023-02-12T19:51:30.649Z,14.53
2023-02-12T19:54:06.984Z,20.40
2023-02-12T19:56:35.491Z,20.00
2023-02-12T19:59:02.867Z,18.77
2023-02-12T20:01:29.856Z,19.13
2023-02-12T20:03:58.647Z,17.13
2023-02-12T20:06:30.527Z,15.03
2023-02-12T20:08:58.233Z,17.40
2023-02-12T20:11:30.704Z,17.50
2023-02-12T20:13:57.634Z,19.17
2023-02-12T20:16:31.193Z,16.47
2023-02-12T20:19:05.893Z,17.10
2023-02-12T20:21:32.920Z,16.50
2023-02-12T20:24:01.747Z,13.23
2023-02-12T20:26:31.320Z,17.30
2023-02-12T20:29:00.413Z,19.70
2023-02-12T20:31:31.197Z,17.17
2023-02-12T20:34:08.189Z,17.03
2023-02-12T20:36:38.963Z,15.17
2023-02-12T20:39:09.568Z,15.50
2023-02-12T20:41:37.201Z,19.13
2023-02-12T20:44:07.676Z,15.70
2023-02-12T20:46:37.864Z,13.57
2023-02-12T20:49:06.116Z,13.13
2023-02-12T20:51:33.551Z,16.87
2023-02-12T20:54:02.552Z,19.83
2023-02-12T20:56:33.554Z,21.13
2023-02-12T20:59:01.160Z,18.73
2023-02-12T21:01:42.136Z,19.50
2023-02-12T21:04:12.762Z,21.17
2023-02-12T21:06:41.700Z,19.77
2023-02-12T21:09:11.621Z,19.23
2023-02-12T21:11:41.018Z,17.67
2023-02-12T21:14:21.844Z,19.37
2023-02-12T21:16:49.987Z,17.57
2023-02-12T21:19:19.888Z,18.60
2023-02-12T21:21:47.805Z,21.30
2023-02-12T21:24:20.160Z,15.27
2023-02-12T21:26:47.668Z,19.33
2023-02-12T21:29:14.963Z,17.20
2023-02-12T21:31:45.645Z,16.43
2023-02-12T21:34:21.802Z,18.90
2023-02-12T21:36:50.369Z,21.67
2023-02-12T21:39:24.881Z,17.93
2023-02-12T21:42:02.759Z,19.63
2023-02-12T21:44:32.553Z,17.43
2023-02-12T21:46:59.504Z,24.17
2023-02-12T21:49:28.006Z,22.70
2023-02-12T21:52:05.916Z,22.10
2023-02-12T21:54:32.963Z,27.10
2023-02-12T21:57:00.427Z,25.00
2023-02-12T21:59:29.516Z,23.03
2023-02-12T22:01:58.602Z,22.77
2023-02-12T22:04:26.136Z,22.77
2023-02-12T22:06:53.972Z,24.63
2023-02-12T22:09:22.938Z,21.60
2023-02-12T22:11:52.145Z,23.13
2023-02-12T22:14:19.549Z,23.33
2023-02-12T22:16:47.679Z,23.47
2023-02-12T22:19:15.409Z,21.23
2023-02-12T22:21:44.341Z,27.30
2023-02-12T22:24:15.205Z,23.27
2023-02-12T22:26:42.814Z,20.77
2023-02-12T22:29:12.287Z,23.70
2023-02-12T22:31:41.719Z,24.10
2023-02-12T22:34:17.936Z,24.47
2023-02-12T22:36:46.082Z,27.97
2023-02-12T22:39:14.275Z,21.10
2023-02-12T22:41:42.385Z,24.10
2023-02-12T22:44:12.197Z,25.10
2023-02-12T22:46:40.010Z,20.70
2023-02-12T22:49:06.960Z,28.10
2023-02-12T22:51:35.926Z,22.47
2023-02-12T22:54:03.363Z,21.60
2023-02-12T22:56:30.312Z,24.23
2023-02-12T22:59:01.758Z,26.00
2023-02-12T23:01:29.865Z,23.60
2023-02-12T23:03:57.482Z,24.27
2023-02-12T23:06:30.666Z,21.90
2023-02-12T23:09:02.411Z,26.10
2023-02-12T23:11:31.655Z,26.67
2023-02-12T23:13:59.116Z,30.53
2023-02-12T23:16:26.466Z,25.17
2023-02-12T23:19:01.930Z,24.40
2023-02-12T23:21:31.464Z,22.40
2023-02-12T23:23:59.462Z,28.03
2023-02-12T23:26:27.545Z,24.70
2023-02-12T23:28:55.726Z,24.53
2023-02-12T23:31:23.336Z,23.93
2023-02-12T23:33:50.440Z,26.10
2023-02-12T23:36:17.840Z,29.73
2023-02-12T23:38:45.065Z,30.83
2023-02-12T23:41:12.469Z,26.33
2023-02-12T23:43:39.406Z,23.20
2023-02-12T23:46:06.655Z,23.73
2023-02-12T23:48:33.956Z,23.70
2023-02-12T23:51:00.898Z,23.73
2023-02-12T23:53:27.786Z,22.07
2023-02-12T23:55:55.122Z,23.63
2023-02-12T23:58:22.430Z,26.27
